createdAt,value
2019-02-28T00:00:15.403Z,43.3
2019-02-28T00:03:15.772Z,44.4
2019-02-28T00:06:15.354Z,45.5
2019-02-28T00:09:15.123Z,44.6
2019-02-28T00:12:15.851Z,44.0
2019-02-28T00:15:15.404Z,46.6
2019-02-28T00:18:16.715Z,46.5
2019-02-28T00:21:19.791Z,45.8
2019-02-28T00:24:14.915Z,46.5
2019-02-28T00:27:15.222Z,46.7
2019-02-28T00:30:15.931Z,48.1
2019-02-28T00:33:15.660Z,46.2
2019-02-28T00:36:16.298Z,45.2
2019-02-28T00:39:15.690Z,45.8
2019-02-28T00:42:17.693Z,49.6
2019-02-28T00:45:15.089Z,46.0
2019-02-28T00:48:18.230Z,47.7
2019-02-28T00:51:15.047Z,47.5
2019-02-28T00:54:15.148Z,46.3
2019-02-28T00:57:15.818Z,47.7
2019-02-28T01:00:15.526Z,46.4
2019-02-28T01:03:15.264Z,46.1
2019-02-28T01:06:15.820Z,47.0
2019-02-28T01:09:15.381Z,47.8
2019-02-28T01:12:19.104Z,47.6
2019-02-28T01:15:15.909Z,46.6
2019-02-28T01:18:15.871Z,48.0
2019-02-28T01:21:14.964Z,48.9
2019-02-28T01:24:15.814Z,47.2
2019-02-28T01:27:17.362Z,47.0
2019-02-28T01:30:15.391Z,47.2
2019-02-28T01:33:14.954Z,48.7
2019-02-28T01:36:16.218Z,47.4
2019-02-28T01:39:15.450Z,48.5
2019-02-28T01:42:16.228Z,47.6
2019-02-28T01:45:15.608Z,47.7
2019-02-28T01:48:15.160Z,48.9
2019-02-28T01:51:15.602Z,48.7
2019-02-28T01:54:15.743Z,47.3
2019-02-28T01:57:15.317Z,48.6
2019-02-28T02:00:15.793Z,49.2
2019-02-28T02:03:15.493Z,48.3
2019-02-28T02:06:15.086Z,48.3
2019-02-28T02:09:15.699Z,47.1
2019-02-28T02:12:15.353Z,48.1
2019-02-28T02:15:16.883Z,47.8
2019-02-28T02:18:15.163Z,47.6
2019-02-28T02:21:15.709Z,48.1
2019-02-28T02:24:15.234Z,49.1
2019-02-28T02:27:16.288Z,50.3
2019-02-28T02:30:16.007Z,49.1
2019-02-28T02:33:15.591Z,48.6
2019-02-28T02:36:16.373Z,48.5
2019-02-28T02:39:17.625Z,47.9
2019-02-28T02:42:15.457Z,47.4
2019-02-28T02:45:15.251Z,47.7
2019-02-28T02:48:15.872Z,47.0
2019-02-28T02:51:15.872Z,47.6
2019-02-28T02:54:19.966Z,47.7
2019-02-28T02:57:15.874Z,46.3
2019-02-28T03:00:15.368Z,47.1
2019-02-28T03:03:15.186Z,46.5
2019-02-28T03:06:15.248Z,47.4
2019-02-28T03:09:15.070Z,47.4
2019-02-28T03:12:15.518Z,48.4
2019-02-28T03:15:15.011Z,47.8
2019-02-28T03:18:20.464Z,48.7
2019-02-28T03:21:16.421Z,48.1
2019-02-28T03:24:16.296Z,49.6
2019-02-28T03:27:18.966Z,49.0
2019-02-28T03:30:26.339Z,48.7
2019-02-28T03:33:25.167Z,50.7
2019-02-28T03:36:16.723Z,49.2
2019-02-28T03:39:15.633Z,49.9
2019-02-28T03:42:15.608Z,49.3
2019-02-28T03:45:15.812Z,49.4
2019-02-28T03:48:15.417Z,48.6
2019-02-28T03:51:15.286Z,48.5
2019-02-28T03:54:14.907Z,48.6
2019-02-28T03:57:15.437Z,49.0
2019-02-28T04:00:15.198Z,49.8
2019-02-28T04:03:15.499Z,49.8
2019-02-28T04:06:15.029Z,51.7
2019-02-28T04:09:15.711Z,48.9
2019-02-28T04:12:15.451Z,49.0
2019-02-28T04:15:15.055Z,48.9
2019-02-28T04:18:15.031Z,49.5
2019-02-28T04:21:15.612Z,49.0
2019-02-28T04:24:15.150Z,49.8
2019-02-28T04:27:15.922Z,49.7
2019-02-28T04:30:15.635Z,49.1
2019-02-28T04:33:15.431Z,49.4
2019-02-28T04:36:15.087Z,49.0
2019-02-28T04:39:15.622Z,49.6
2019-02-28T04:42:15.831Z,49.7
2019-02-28T04:45:15.377Z,50.8
2019-02-28T04:48:15.452Z,51.4
2019-02-28T04:51:15.008Z,51.9
2019-02-28T04:54:15.715Z,51.6
2019-02-28T04:57:17.401Z,51.8
2019-02-28T05:00:15.056Z,51.3
2019-02-28T05:03:15.044Z,53.6
2019-02-28T05:06:18.377Z,51.1
2019-02-28T05:09:15.716Z,51.4
2019-02-28T05:12:15.494Z,51.1
2019-02-28T05:15:15.230Z,51.1
2019-02-28T05:18:15.187Z,49.8
2019-02-28T05:21:16.559Z,49.8
2019-02-28T05:24:15.248Z,50.0
2019-02-28T05:27:15.116Z,51.7
2019-02-28T05:30:19.409Z,50.3
2019-02-28T05:33:15.521Z,51.4
2019-02-28T05:36:15.215Z,51.2
2019-02-28T05:39:15.824Z,51.5
2019-02-28T05:42:15.098Z,51.7
2019-02-28T05:45:15.913Z,51.9
2019-02-28T05:48:14.947Z,51.8
2019-02-28T05:51:14.982Z,52.2
2019-02-28T05:54:16.923Z,51.9
2019-02-28T05:57:15.825Z,52.4
2019-02-28T06:00:15.880Z,52.6
2019-02-28T06:03:15.101Z,51.6
2019-02-28T06:06:17.290Z,52.1
2019-02-28T06:09:15.018Z,51.2
2019-02-28T06:12:15.658Z,51.9
2019-02-28T06:15:15.358Z,50.7
2019-02-28T06:18:15.122Z,50.9
2019-02-28T06:21:15.165Z,50.9
2019-02-28T06:24:15.847Z,51.2
2019-02-28T06:27:15.493Z,51.0
2019-02-28T06:30:14.919Z,51.0
2019-02-28T06:33:14.947Z,50.5
2019-02-28T06:36:14.965Z,50.2
2019-02-28T06:39:17.518Z,50.6
2019-02-28T06:42:15.281Z,49.9
2019-02-28T06:45:15.466Z,49.8
2019-02-28T06:48:15.183Z,49.4
2019-02-28T06:51:16.843Z,49.0
2019-02-28T06:54:15.281Z,49.4
2019-02-28T06:57:14.941Z,48.2
2019-02-28T07:00:15.845Z,48.0
2019-02-28T07:03:15.718Z,47.2
2019-02-28T07:06:15.552Z,47.2
2019-02-28T07:09:15.785Z,46.8
2019-02-28T07:12:15.490Z,46.6
2019-02-28T07:15:15.339Z,46.2
2019-02-28T07:18:18.878Z,46.3
2019-02-28T07:21:15.525Z,45.4
2019-02-28T07:24:15.139Z,45.1
2019-02-28T07:27:14.913Z,45.0
2019-02-28T07:30:18.779Z,45.0
2019-02-28T07:33:15.041Z,44.2
2019-02-28T07:36:15.695Z,44.4
2019-02-28T07:39:15.380Z,44.2
2019-02-28T07:42:15.302Z,43.6
2019-02-28T07:45:15.614Z,43.2
2019-02-28T07:48:15.398Z,43.8
2019-02-28T07:51:18.356Z,43.1
2019-02-28T07:54:16.573Z,42.6
2019-02-28T07:57:17.247Z,42.1
2019-02-28T08:00:18.122Z,41.5
2019-02-28T08:03:15.575Z,41.0
2019-02-28T08:06:15.457Z,40.4
2019-02-28T08:09:15.211Z,40.7
2019-02-28T08:12:15.656Z,39.9
2019-02-28T08:15:21.109Z,39.1
2019-02-28T08:18:15.758Z,38.3
2019-02-28T08:21:15.361Z,36.4
2019-02-28T08:24:15.025Z,35.3
2019-02-28T08:27:15.869Z,33.6
2019-02-28T08:30:16.238Z,31.5
2019-02-28T08:33:16.319Z,30.1
2019-02-28T08:36:15.979Z,29.4
2019-02-28T08:39:20.876Z,28.2
2019-02-28T08:42:15.916Z,28.1
2019-02-28T08:45:15.345Z,27.8
2019-02-28T08:48:15.906Z,26.7
2019-02-28T08:51:15.053Z,26.6
2019-02-28T08:54:15.131Z,25.7
2019-02-28T08:57:15.788Z,25.5
2019-02-28T09:00:15.428Z,24.5
2019-02-28T09:03:14.965Z,24.2
2019-02-28T09:06:15.680Z,24.7
2019-02-28T09:09:15.317Z,23.9
2019-02-28T09:12:15.472Z,22.2
2019-02-28T09:15:15.494Z,21.4
2019-02-28T09:18:15.820Z,22.2
2019-02-28T09:21:18.305Z,22.8
2019-02-28T09:24:15.827Z,22.5
2019-02-28T09:27:15.540Z,22.9
2019-02-28T09:30:15.583Z,21.3
2019-02-28T09:33:15.082Z,21.4
2019-02-28T09:36:20.405Z,21.4
2019-02-28T09:39:16.400Z,21.9
2019-02-28T09:42:15.860Z,21.1
2019-02-28T09:45:15.834Z,21.0
2019-02-28T09:48:15.771Z,20.9
2019-02-28T09:51:15.204Z,20.6
2019-02-28T09:54:15.206Z,20.6
2019-02-28T09:57:15.359Z,20.0
2019-02-28T10:00:15.440Z,19.1
2019-02-28T10:03:18.654Z,19.6
2019-02-28T10:06:16.468Z,20.5
2019-02-28T10:09:17.681Z,20.0
2019-02-28T10:12:15.704Z,20.3
2019-02-28T10:15:15.755Z,21.2
2019-02-28T10:18:15.140Z,20.7
2019-02-28T10:21:15.792Z,21.0
2019-02-28T10:24:15.358Z,19.9
2019-02-28T10:27:15.176Z,19.1
2019-02-28T10:30:16.661Z,19.0
2019-02-28T10:33:17.358Z,18.1
2019-02-28T10:36:15.621Z,18.8
2019-02-28T10:39:20.863Z,20.0
2019-02-28T10:42:15.871Z,22.2
2019-02-28T10:45:15.999Z,23.7
2019-02-28T10:48:15.861Z,25.3
2019-02-28T10:51:15.239Z,26.6
2019-02-28T10:54:15.471Z,27.8
2019-02-28T10:57:15.126Z,28.6
2019-02-28T11:00:20.942Z,28.8
2019-02-28T11:03:15.267Z,29.3
2019-02-28T11:06:15.787Z,29.5
2019-02-28T11:09:18.333Z,30.3
2019-02-28T11:12:19.641Z,30.1
2019-02-28T11:15:15.287Z,30.7
2019-02-28T11:18:15.346Z,31.3
2019-02-28T11:21:15.401Z,30.9
2019-02-28T11:24:15.172Z,31.1
2019-02-28T11:27:16.105Z,30.5
2019-02-28T11:30:15.130Z,31.0
2019-02-28T11:33:15.139Z,30.8
2019-02-28T11:36:15.226Z,30.6
2019-02-28T11:39:15.305Z,30.2
2019-02-28T11:42:15.433Z,30.4
2019-02-28T11:45:18.579Z,29.6
2019-02-28T11:48:18.944Z,28.3
2019-02-28T11:51:17.612Z,26.7
2019-02-28T11:54:15.949Z,25.6
2019-02-28T11:57:15.134Z,25.4
2019-02-28T12:00:15.392Z,25.1
2019-02-28T12:03:15.114Z,25.1
2019-02-28T12:06:15.652Z,25.9
2019-02-28T12:09:16.312Z,25.7
2019-02-28T12:12:15.950Z,26.0
2019-02-28T12:15:15.750Z,26.2
2019-02-28T12:18:15.444Z,26.4
2019-02-28T12:21:15.152Z,27.0
2019-02-28T12:24:15.656Z,27.0
2019-02-28T12:27:15.676Z,27.0
2019-02-28T12:30:15.678Z,27.0
2019-02-28T12:33:15.365Z,27.0
2019-02-28T12:36:15.304Z,27.0
2019-02-28T12:39:14.902Z,27.0
2019-02-28T12:42:15.309Z,26.9
2019-02-28T12:45:15.845Z,27.0
2019-02-28T12:48:15.676Z,27.0
2019-02-28T12:51:15.607Z,27.1
2019-02-28T12:54:15.322Z,26.9
2019-02-28T12:57:15.514Z,26.8
2019-02-28T13:00:15.295Z,26.8
2019-02-28T13:03:19.260Z,26.1
2019-02-28T13:06:15.221Z,26.6
2019-02-28T13:09:16.895Z,26.6
2019-02-28T13:12:14.942Z,27.0
2019-02-28T13:15:15.795Z,26.7
2019-02-28T13:18:15.868Z,26.6
2019-02-28T13:21:16.002Z,26.8
2019-02-28T13:24:15.850Z,26.7
2019-02-28T13:27:15.587Z,26.6
2019-02-28T13:30:15.599Z,26.2
2019-02-28T13:33:16.159Z,26.1
2019-02-28T13:36:18.544Z,26.3
2019-02-28T13:39:15.486Z,26.2
2019-02-28T13:42:15.611Z,26.2
2019-02-28T13:45:22.196Z,26.4
2019-02-28T13:48:25.381Z,26.3
2019-02-28T13:51:15.351Z,26.4
2019-02-28T13:54:15.996Z,26.5
2019-02-28T13:57:15.496Z,26.9
2019-02-28T14:00:15.522Z,26.9
2019-02-28T14:03:16.999Z,27.8
2019-02-28T14:06:19.610Z,27.6
2019-02-28T14:09:18.905Z,27.6
2019-02-28T14:12:17.024Z,27.9
2019-02-28T14:15:16.897Z,28.2
2019-02-28T14:18:15.782Z,28.8
2019-02-28T14:21:15.736Z,29.1
2019-02-28T14:24:15.192Z,29.9
2019-02-28T14:27:15.383Z,30.0
2019-02-28T14:30:15.594Z,30.6
2019-02-28T14:33:16.173Z,30.7
2019-02-28T14:36:15.215Z,30.9
2019-02-28T14:39:22.117Z,31.3
2019-02-28T14:43:28.535Z,32.0
2019-02-28T14:45:15.597Z,31.5
2019-02-28T14:48:15.954Z,32.3
2019-02-28T14:51:17.081Z,32.2
2019-02-28T14:54:15.052Z,32.9
2019-02-28T14:57:16.703Z,33.0
2019-02-28T15:00:15.630Z,32.3
2019-02-28T15:03:15.885Z,32.7
2019-02-28T15:06:14.873Z,33.0
2019-02-28T15:09:15.346Z,33.0
2019-02-28T15:12:15.555Z,32.8
2019-02-28T15:15:17.967Z,33.3
2019-02-28T15:18:15.855Z,33.0
2019-02-28T15:21:15.864Z,34.2
2019-02-28T15:24:15.241Z,33.7
2019-02-28T15:27:15.208Z,33.8
2019-02-28T15:30:15.066Z,33.5
2019-02-28T15:33:15.467Z,34.0
2019-02-28T15:36:16.049Z,34.6
2019-02-28T15:39:17.134Z,35.0
2019-02-28T15:42:15.061Z,35.0
2019-02-28T15:45:15.797Z,35.5
2019-02-28T15:48:15.748Z,35.9
2019-02-28T15:51:15.935Z,35.7
2019-02-28T15:54:15.025Z,36.0
2019-02-28T15:57:14.957Z,36.5
2019-02-28T16:00:15.904Z,36.9
2019-02-28T16:03:16.825Z,37.6
2019-02-28T16:06:16.353Z,38.0
2019-02-28T16:09:15.654Z,38.4
2019-02-28T16:12:15.972Z,38.8
2019-02-28T16:15:15.049Z,38.5
2019-02-28T16:18:15.323Z,39.0
2019-02-28T16:21:15.396Z,39.8
2019-02-28T16:24:15.346Z,40.4
2019-02-28T16:27:15.316Z,40.6
2019-02-28T16:30:15.719Z,40.8
2019-02-28T16:33:15.449Z,41.2
2019-02-28T16:36:16.668Z,41.7
2019-02-28T16:39:16.923Z,41.3
2019-02-28T16:42:17.488Z,41.7
2019-02-28T16:45:14.958Z,42.4
2019-02-28T16:48:15.807Z,41.8
2019-02-28T16:51:15.542Z,41.8
2019-02-28T16:54:15.595Z,42.1
2019-02-28T16:57:15.270Z,42.6
2019-02-28T17:00:15.685Z,42.4
2019-02-28T17:03:15.969Z,42.3
2019-02-28T17:06:15.196Z,41.6
2019-02-28T17:09:15.869Z,43.2
2019-02-28T17:12:15.694Z,41.6
2019-02-28T17:15:15.809Z,41.6
2019-02-28T17:18:18.518Z,41.7
2019-02-28T17:21:17.992Z,41.8
2019-02-28T17:24:15.153Z,42.4
2019-02-28T17:27:15.259Z,42.6
2019-02-28T17:30:15.606Z,43.1
2019-02-28T17:33:15.894Z,43.3
2019-02-28T17:36:15.117Z,42.7
2019-02-28T17:39:15.886Z,42.8
2019-02-28T17:42:15.963Z,42.8
2019-02-28T17:45:16.468Z,41.8
2019-02-28T17:48:15.698Z,42.5
2019-02-28T17:51:18.406Z,42.5
2019-02-28T17:54:17.269Z,43.0
2019-02-28T17:57:16.823Z,42.4
2019-02-28T18:00:17.288Z,42.3
2019-02-28T18:03:16.066Z,42.9
2019-02-28T18:06:15.246Z,43.6
2019-02-28T18:09:15.102Z,44.3
2019-02-28T18:12:14.943Z,44.9
2019-02-28T18:15:15.945Z,44.5
2019-02-28T18:18:15.655Z,44.9
2019-02-28T18:21:17.514Z,44.9
2019-02-28T18:24:15.405Z,44.8
2019-02-28T18:27:15.209Z,45.3
2019-02-28T18:30:16.069Z,45.2
2019-02-28T18:33:15.755Z,44.5
2019-02-28T18:36:15.885Z,45.6
2019-02-28T18:39:15.202Z,45.9
2019-02-28T18:42:16.099Z,45.9
2019-02-28T18:45:19.145Z,45.4
2019-02-28T18:48:17.806Z,46.0
2019-02-28T18:51:16.732Z,45.4
2019-02-28T18:54:15.915Z,46.0
2019-02-28T18:57:16.512Z,46.1
2019-02-28T19:01:42.628Z,45.3
2019-02-28T19:18:15.053Z,47.6
2019-02-28T19:21:15.120Z,49.4
2019-02-28T19:24:15.066Z,47.7
2019-02-28T19:27:14.972Z,48.6
2019-02-28T19:30:14.956Z,49.5
2019-02-28T19:33:15.030Z,48.8
2019-02-28T19:36:15.871Z,50.2
2019-02-28T19:39:15.927Z,49.5
2019-02-28T19:42:15.888Z,51.6
2019-02-28T19:45:15.186Z,52.6
2019-02-28T19:48:18.231Z,51.7
2019-02-28T19:51:15.359Z,52.2
2019-02-28T19:54:15.462Z,51.3
2019-02-28T19:57:15.365Z,52.8
2019-02-28T20:00:15.488Z,52.3
2019-02-28T20:03:15.766Z,52.1
2019-02-28T20:06:15.943Z,52.2
2019-02-28T20:09:15.932Z,52.3
2019-02-28T20:12:15.177Z,52.7
2019-02-28T20:15:15.834Z,53.0
2019-02-28T20:18:15.868Z,53.6
2019-02-28T20:21:15.376Z,54.1
2019-02-28T20:24:15.167Z,54.4
2019-02-28T20:27:15.256Z,52.6
2019-02-28T20:30:15.461Z,53.7
2019-02-28T20:33:15.604Z,53.8
2019-02-28T20:36:15.404Z,53.1
2019-02-28T20:39:15.719Z,53.3
2019-02-28T20:42:15.707Z,53.3
2019-02-28T20:45:15.661Z,53.6
2019-02-28T20:48:15.805Z,53.6
2019-02-28T20:51:15.103Z,53.3
2019-02-28T20:54:15.770Z,53.7
2019-02-28T20:57:15.561Z,53.8
2019-02-28T21:00:15.932Z,54.0
2019-02-28T21:03:15.860Z,54.2
2019-02-28T21:06:15.056Z,55.5
2019-02-28T21:09:15.980Z,56.2
2019-02-28T21:12:15.748Z,55.4
2019-02-28T21:15:15.826Z,55.2
2019-02-28T21:18:16.085Z,55.4
2019-02-28T21:21:15.131Z,55.8
2019-02-28T21:24:15.370Z,56.2
2019-02-28T21:27:15.415Z,56.6
2019-02-28T21:30:15.394Z,57.4
2019-02-28T21:33:15.392Z,55.8
2019-02-28T21:36:15.282Z,56.4
2019-02-28T21:39:15.566Z,56.5
2019-02-28T21:42:15.478Z,56.8
2019-02-28T21:45:15.384Z,55.6
2019-02-28T21:48:15.263Z,55.4
2019-02-28T21:51:15.017Z,55.5
2019-02-28T21:54:15.937Z,56.3
2019-02-28T21:57:15.830Z,56.2
2019-02-28T22:00:15.719Z,55.4
2019-02-28T22:03:15.114Z,56.5
2019-02-28T22:06:15.030Z,56.0
2019-02-28T22:09:14.959Z,56.5
2019-02-28T22:12:15.675Z,55.9
2019-02-28T22:15:15.567Z,55.9
2019-02-28T22:18:15.663Z,56.5
2019-02-28T22:21:15.835Z,56.0
2019-02-28T22:24:15.374Z,55.9
2019-02-28T22:27:15.405Z,56.1
2019-02-28T22:33:15.465Z,56.3
2019-02-28T22:36:15.520Z,55.6
2019-02-28T22:39:15.790Z,56.6
2019-02-28T22:42:22.094Z,56.8
2019-02-28T22:45:15.322Z,57.0
2019-02-28T22:48:15.494Z,56.4
2019-02-28T22:51:15.349Z,55.8
2019-02-28T22:54:15.195Z,57.6
2019-02-28T22:57:15.931Z,57.1
2019-02-28T23:00:15.989Z,58.5
2019-02-28T23:03:15.198Z,59.1
2019-02-28T23:06:15.705Z,60.5
2019-02-28T23:09:14.973Z,62.2
2019-02-28T23:12:15.197Z,61.6
2019-02-28T23:15:15.887Z,64.7
2019-02-28T23:18:15.531Z,63.5
2019-02-28T23:21:15.314Z,65.7
2019-02-28T23:24:15.221Z,65.4
2019-02-28T23:27:15.989Z,67.7
2019-02-28T23:30:15.802Z,66.0
2019-02-28T23:33:15.403Z,67.2
2019-02-28T23:36:15.358Z,64.5
2019-02-28T23:39:15.037Z,67.8
2019-02-28T23:42:15.843Z,66.8
2019-02-28T23:45:15.689Z,67.4
2019-02-28T23:48:15.607Z,64.6
2019-02-28T23:51:15.639Z,65.5
2019-02-28T23:54:15.244Z,64.9
2019-02-28T23:57:15.043Z,65.8
